CSN630 SCCI-SCEL
Flight info
| Callsign | CSN630 |
|---|---|
| Flight time | 3h 20m |
| Altitude | 34000 |
| Route | SIRUN4A SIRUN UQ802 EROLO EROLO2D |
| Aircraft | B738/M-SDE2E3FGHIRWXY/LB1 |
Departure
| Time | 2026-04-16 10:48 |
|---|---|
| Airport | President Carlos Ibáñez International Airport (SCCI) |
Arrival
| Time | 2026-04-16 14:08 |
|---|---|
| Airport | Comodoro Arturo Merino Benítez International Airport (SCEL) |
| Time | Latitude | Longitude | Altitude | Speed | Heading |
|---|---|---|---|---|---|
| 2026-04-16 10:31 | -53.00446 | -70.84364 | 134 ft | 0 kts | 179° |
| 2026-04-16 10:40 | -53.00442 | -70.84364 | 129 ft | 3 kts | 178° |
| 2026-04-16 10:40 | -53.00415 | -70.84369 | 129 ft | 4 kts | 164° |
| 2026-04-16 10:40 | -53.00392 | -70.84386 | 129 ft | 4 kts | 136° |
| 2026-04-16 10:41 | -53.00381 | -70.84417 | 129 ft | 1 kts | 89° |
| 2026-04-16 10:41 | -53.00381 | -70.84418 | 129 ft | 0 kts | 88° |
| 2026-04-16 10:43 | -53.00380 | -70.84414 | 129 ft | 1 kts | 88° |
| 2026-04-16 10:44 | -53.00370 | -70.84388 | 129 ft | 4 kts | 34° |
| 2026-04-16 10:44 | -53.00328 | -70.84375 | 129 ft | 8 kts | 0° |
| 2026-04-16 10:44 | -53.00262 | -70.84355 | 129 ft | 11 kts | 43° |
| 2026-04-16 10:44 | -53.00245 | -70.84215 | 129 ft | 14 kts | 89° |
| 2026-04-16 10:45 | -53.00242 | -70.84033 | 129 ft | 18 kts | 90° |
| 2026-04-16 10:45 | -53.00239 | -70.83812 | 129 ft | 21 kts | 88° |
| 2026-04-16 10:45 | -53.00235 | -70.83558 | 130 ft | 23 kts | 89° |
| 2026-04-16 10:45 | -53.00234 | -70.83304 | 130 ft | 23 kts | 89° |
| 2026-04-16 10:46 | -53.00226 | -70.83080 | 130 ft | 14 kts | 72° |
| 2026-04-16 10:46 | -53.00169 | -70.83039 | 130 ft | 8 kts | 360° |
| 2026-04-16 10:46 | -53.00110 | -70.83041 | 131 ft | 10 kts | 358° |
| 2026-04-16 10:46 | -53.00061 | -70.83121 | 131 ft | 12 kts | 274° |
| 2026-04-16 10:47 | -53.00062 | -70.83282 | 131 ft | 17 kts | 268° |
| 2026-04-16 10:47 | -53.00068 | -70.83713 | 126 ft | 68 kts | 269° |
| 2026-04-16 10:47 | -53.00083 | -70.84855 | 130 ft | 128 kts | 269° |
| 2026-04-16 10:47 | -53.00092 | -70.86633 | 139 ft | 177 kts | 269° |
| 2026-04-16 10:48 | -53.00172 | -70.88832 | 560 ft | 197 kts | 265° |
| 2026-04-16 10:48 | -53.00260 | -70.91056 | 1342 ft | 183 kts | 286° |
| 2026-04-16 10:48 | -52.99581 | -70.92664 | 2239 ft | 175 kts | 321° |
| 2026-04-16 10:48 | -52.98564 | -70.93934 | 2443 ft | 191 kts | 320° |
| 2026-04-16 10:49 | -52.97485 | -70.95373 | 2582 ft | 207 kts | 319° |
| 2026-04-16 10:49 | -52.96351 | -70.96990 | 2751 ft | 223 kts | 317° |
| 2026-04-16 10:49 | -52.95163 | -70.98792 | 2983 ft | 238 kts | 315° |
| 2026-04-16 10:49 | -52.93967 | -71.00693 | 3639 ft | 237 kts | 315° |
| 2026-04-16 10:50 | -52.92783 | -71.02619 | 4273 ft | 240 kts | 315° |
| 2026-04-16 10:50 | -52.91596 | -71.04572 | 4896 ft | 241 kts | 315° |
| 2026-04-16 10:50 | -52.90407 | -71.06538 | 5574 ft | 242 kts | 316° |
| 2026-04-16 10:50 | -52.89220 | -71.08521 | 6203 ft | 243 kts | 315° |
| 2026-04-16 10:51 | -52.88043 | -71.10515 | 6910 ft | 241 kts | 314° |
| 2026-04-16 10:51 | -52.86880 | -71.12487 | 7677 ft | 238 kts | 314° |
| 2026-04-16 10:51 | -52.85723 | -71.14448 | 8400 ft | 238 kts | 314° |
| 2026-04-16 10:51 | -52.84567 | -71.16404 | 9165 ft | 236 kts | 314° |
| 2026-04-16 10:52 | -52.83420 | -71.18344 | 9847 ft | 236 kts | 314° |
| 2026-04-16 10:52 | -52.82267 | -71.20290 | 10401 ft | 242 kts | 314° |
| 2026-04-16 10:52 | -52.81036 | -71.22368 | 10549 ft | 262 kts | 314° |
| 2026-04-16 10:52 | -52.79729 | -71.24570 | 10713 ft | 281 kts | 314° |
| 2026-04-16 10:53 | -52.78317 | -71.26948 | 10881 ft | 298 kts | 314° |
| 2026-04-16 10:53 | -52.76842 | -71.29430 | 11322 ft | 306 kts | 314° |
| 2026-04-16 10:53 | -52.75351 | -71.31937 | 12043 ft | 305 kts | 314° |
| 2026-04-16 10:53 | -52.73866 | -71.34430 | 12840 ft | 303 kts | 315° |
| 2026-04-16 10:54 | -52.72380 | -71.36913 | 13505 ft | 305 kts | 316° |
| 2026-04-16 10:54 | -52.70826 | -71.39329 | 14064 ft | 308 kts | 317° |
| 2026-04-16 10:54 | -52.69224 | -71.41721 | 14677 ft | 311 kts | 318° |
| 2026-04-16 10:54 | -52.67630 | -71.44078 | 15299 ft | 312 kts | 319° |
| 2026-04-16 10:55 | -52.66004 | -71.46480 | 15898 ft | 315 kts | 319° |
| 2026-04-16 10:55 | -52.64368 | -71.48899 | 16479 ft | 318 kts | 319° |
| 2026-04-16 10:55 | -52.62720 | -71.51339 | 17063 ft | 320 kts | 319° |
| 2026-04-16 10:55 | -52.61056 | -71.53804 | 17632 ft | 323 kts | 319° |
| 2026-04-16 10:56 | -52.59379 | -71.56287 | 18140 ft | 325 kts | 319° |
| 2026-04-16 10:56 | -52.57697 | -71.58778 | 18661 ft | 326 kts | 319° |
| 2026-04-16 10:56 | -52.56004 | -71.61283 | 19159 ft | 328 kts | 319° |
| 2026-04-16 10:56 | -52.54301 | -71.63801 | 19648 ft | 330 kts | 320° |
| 2026-04-16 10:57 | -52.52587 | -71.66333 | 20145 ft | 332 kts | 320° |
| 2026-04-16 10:57 | -52.50863 | -71.68877 | 20605 ft | 334 kts | 320° |
| 2026-04-16 10:57 | -52.49127 | -71.71436 | 21043 ft | 337 kts | 320° |
| 2026-04-16 10:57 | -52.47400 | -71.73979 | 21516 ft | 339 kts | 320° |
| 2026-04-16 10:58 | -52.45646 | -71.76559 | 22036 ft | 339 kts | 320° |
| 2026-04-16 10:58 | -52.43879 | -71.79155 | 22502 ft | 341 kts | 320° |
| 2026-04-16 10:58 | -52.42107 | -71.81755 | 22911 ft | 343 kts | 320° |
| 2026-04-16 10:58 | -52.40317 | -71.84380 | 23275 ft | 345 kts | 320° |
| 2026-04-16 10:59 | -52.38522 | -71.87007 | 23637 ft | 347 kts | 320° |
| 2026-04-16 10:59 | -52.36719 | -71.89644 | 23988 ft | 348 kts | 320° |
| 2026-04-16 10:59 | -52.34907 | -71.92291 | 24328 ft | 350 kts | 320° |
| 2026-04-16 10:59 | -52.33103 | -71.94922 | 24660 ft | 352 kts | 320° |
| 2026-04-16 11:00 | -52.31268 | -71.97597 | 24972 ft | 354 kts | 320° |
| 2026-04-16 11:00 | -52.29419 | -72.00287 | 25295 ft | 356 kts | 321° |
| 2026-04-16 11:00 | -52.27567 | -72.02978 | 25582 ft | 358 kts | 321° |
| 2026-04-16 11:00 | -52.25698 | -72.05693 | 25865 ft | 360 kts | 321° |
| 2026-04-16 11:01 | -52.23828 | -72.08408 | 26172 ft | 361 kts | 321° |
| 2026-04-16 11:01 | -52.21941 | -72.11143 | 26456 ft | 363 kts | 321° |
| 2026-04-16 11:01 | -52.20047 | -72.13890 | 26748 ft | 365 kts | 321° |
| 2026-04-16 11:01 | -52.18165 | -72.16621 | 27028 ft | 367 kts | 321° |
| 2026-04-16 11:02 | -52.16248 | -72.19401 | 27294 ft | 369 kts | 321° |
| 2026-04-16 11:02 | -52.14324 | -72.22188 | 27544 ft | 371 kts | 321° |
| 2026-04-16 11:02 | -52.12386 | -72.24988 | 27806 ft | 372 kts | 321° |
| 2026-04-16 11:02 | -52.10453 | -72.27779 | 28164 ft | 371 kts | 321° |
| 2026-04-16 11:03 | -52.08524 | -72.30561 | 28583 ft | 369 kts | 321° |
| 2026-04-16 11:03 | -52.06608 | -72.33319 | 28989 ft | 368 kts | 321° |
| 2026-04-16 11:03 | -52.02779 | -72.38819 | 29677 ft | 366 kts | 321° |
| 2026-04-16 11:04 | -52.00869 | -72.41558 | 29956 ft | 366 kts | 321° |
| 2026-04-16 11:04 | -51.98956 | -72.44297 | 30229 ft | 366 kts | 321° |
| 2026-04-16 11:04 | -51.97070 | -72.46993 | 30491 ft | 365 kts | 321° |
| 2026-04-16 11:04 | -51.95160 | -72.49722 | 30753 ft | 365 kts | 321° |
| 2026-04-16 11:05 | -51.93246 | -72.52453 | 31024 ft | 365 kts | 321° |
| 2026-04-16 11:05 | -51.91334 | -72.55176 | 31268 ft | 365 kts | 321° |
| 2026-04-16 11:05 | -51.89425 | -72.57894 | 31516 ft | 365 kts | 321° |
| 2026-04-16 11:05 | -51.87514 | -72.60611 | 31755 ft | 366 kts | 321° |
| 2026-04-16 11:06 | -51.85600 | -72.63331 | 31974 ft | 366 kts | 321° |
| 2026-04-16 11:06 | -51.83654 | -72.65987 | 32204 ft | 365 kts | 325° |
| 2026-04-16 11:06 | -51.81550 | -72.68263 | 32371 ft | 365 kts | 330° |
| 2026-04-16 11:07 | -51.77158 | -72.72456 | 32494 ft | 372 kts | 330° |
| 2026-04-16 11:07 | -51.72661 | -72.76755 | 32749 ft | 376 kts | 330° |
| 2026-04-16 11:07 | -51.70407 | -72.78911 | 32941 ft | 376 kts | 330° |
| 2026-04-16 11:08 | -51.68157 | -72.81063 | 33135 ft | 376 kts | 330° |
| 2026-04-16 11:08 | -51.65907 | -72.83215 | 33318 ft | 375 kts | 330° |
| 2026-04-16 11:08 | -51.63658 | -72.85363 | 33366 ft | 376 kts | 330° |
| 2026-04-16 11:09 | -51.59140 | -72.89672 | 33390 ft | 379 kts | 330° |
| 2026-04-16 11:09 | -51.54592 | -72.93998 | 33373 ft | 380 kts | 329° |
| 2026-04-16 11:10 | -51.50062 | -72.98298 | 33387 ft | 380 kts | 329° |
| 2026-04-16 11:10 | -51.45504 | -73.02614 | 33399 ft | 381 kts | 329° |
| 2026-04-16 11:11 | -51.40928 | -73.06936 | 33400 ft | 381 kts | 329° |
| 2026-04-16 11:11 | -51.36347 | -73.11251 | 33396 ft | 382 kts | 329° |
| 2026-04-16 11:12 | -51.31788 | -73.15536 | 33402 ft | 382 kts | 329° |
| 2026-04-16 11:12 | -51.27201 | -73.19840 | 33401 ft | 382 kts | 329° |
| 2026-04-16 11:13 | -51.22617 | -73.24136 | 33402 ft | 382 kts | 328° |
| 2026-04-16 11:13 | -51.18031 | -73.28423 | 33415 ft | 381 kts | 328° |
| 2026-04-16 11:14 | -51.13452 | -73.32688 | 33419 ft | 380 kts | 328° |
| 2026-04-16 11:14 | -51.08882 | -73.36935 | 33416 ft | 380 kts | 328° |
| 2026-04-16 11:15 | -51.04316 | -73.41168 | 33427 ft | 379 kts | 328° |
| 2026-04-16 11:15 | -50.99786 | -73.45357 | 33432 ft | 379 kts | 328° |
| 2026-04-16 11:16 | -50.95227 | -73.49565 | 33443 ft | 379 kts | 328° |
| 2026-04-16 11:16 | -50.90660 | -73.53769 | 33429 ft | 379 kts | 328° |
| 2026-04-16 11:17 | -50.86115 | -73.57944 | 33459 ft | 377 kts | 328° |
| 2026-04-16 11:17 | -50.81597 | -73.62084 | 33455 ft | 377 kts | 327° |
| 2026-04-16 11:18 | -50.77054 | -73.66238 | 33459 ft | 376 kts | 327° |
| 2026-04-16 11:18 | -50.72516 | -73.70378 | 33437 ft | 376 kts | 327° |
| 2026-04-16 11:19 | -50.68001 | -73.74487 | 33467 ft | 374 kts | 327° |
| 2026-04-16 11:19 | -50.63493 | -73.78581 | 33449 ft | 374 kts | 327° |
| 2026-04-16 11:20 | -50.58992 | -73.82658 | 33448 ft | 372 kts | 327° |
| 2026-04-16 11:20 | -50.54530 | -73.86691 | 33454 ft | 373 kts | 327° |
| 2026-04-16 11:21 | -50.50041 | -73.90738 | 33435 ft | 370 kts | 327° |
| 2026-04-16 11:21 | -50.45571 | -73.94760 | 33467 ft | 370 kts | 327° |
| 2026-04-16 11:22 | -50.41095 | -73.98772 | 33429 ft | 370 kts | 328° |
| 2026-04-16 11:22 | -50.36162 | -74.01318 | 33473 ft | 378 kts | 341° |
| 2026-04-16 11:23 | -50.30897 | -74.02107 | 33424 ft | 387 kts | 354° |
| 2026-04-16 11:23 | -50.25522 | -74.01396 | 33491 ft | 389 kts | 355° |
| 2026-04-16 11:24 | -50.20106 | -74.00645 | 33478 ft | 392 kts | 355° |
| 2026-04-16 11:24 | -50.14655 | -73.99905 | 33419 ft | 392 kts | 355° |
| 2026-04-16 11:25 | -50.09246 | -73.99177 | 33465 ft | 393 kts | 355° |
| 2026-04-16 11:25 | -50.03794 | -73.98453 | 33441 ft | 392 kts | 355° |
| 2026-04-16 11:26 | -49.98358 | -73.97734 | 33411 ft | 391 kts | 355° |
| 2026-04-16 11:26 | -49.92938 | -73.97018 | 33460 ft | 392 kts | 355° |
| 2026-04-16 11:27 | -49.88409 | -73.96426 | 33458 ft | 393 kts | 355° |
| 2026-04-16 11:27 | -49.82030 | -73.95593 | 33409 ft | 396 kts | 355° |
| 2026-04-16 11:28 | -49.77459 | -73.94990 | 33440 ft | 397 kts | 355° |
| 2026-04-16 11:28 | -49.71955 | -73.94268 | 33440 ft | 396 kts | 355° |
| 2026-04-16 11:29 | -49.66479 | -73.93551 | 33485 ft | 392 kts | 355° |
| 2026-04-16 11:29 | -49.61044 | -73.92845 | 33436 ft | 395 kts | 355° |
| 2026-04-16 11:30 | -49.55601 | -73.92130 | 33473 ft | 390 kts | 355° |
| 2026-04-16 11:30 | -49.50180 | -73.91430 | 33448 ft | 390 kts | 355° |
| 2026-04-16 11:31 | -49.44828 | -73.90734 | 33467 ft | 387 kts | 355° |
| 2026-04-16 11:31 | -49.39412 | -73.90041 | 33376 ft | 392 kts | 355° |
| 2026-04-16 11:31 | -49.36700 | -73.89688 | 33490 ft | 390 kts | 355° |
| 2026-04-16 11:32 | -49.33974 | -73.89335 | 33475 ft | 394 kts | 355° |
| 2026-04-16 11:32 | -49.28458 | -73.88633 | 33458 ft | 400 kts | 355° |
| 2026-04-16 11:33 | -49.22938 | -73.87929 | 33444 ft | 395 kts | 355° |
| 2026-04-16 11:33 | -49.17491 | -73.87228 | 33452 ft | 391 kts | 355° |
| 2026-04-16 11:34 | -49.12081 | -73.86542 | 33458 ft | 389 kts | 355° |
| 2026-04-16 11:34 | -49.06681 | -73.85857 | 33449 ft | 388 kts | 355° |
| 2026-04-16 11:35 | -49.01289 | -73.85174 | 33468 ft | 389 kts | 355° |
| 2026-04-16 11:35 | -48.95920 | -73.84492 | 33471 ft | 389 kts | 355° |
| 2026-04-16 11:36 | -48.90519 | -73.83809 | 33466 ft | 389 kts | 355° |
| 2026-04-16 11:36 | -48.85105 | -73.83127 | 33465 ft | 391 kts | 355° |
| 2026-04-16 11:37 | -48.79680 | -73.82445 | 33481 ft | 391 kts | 355° |
| 2026-04-16 11:37 | -48.74232 | -73.81756 | 33486 ft | 393 kts | 355° |
| 2026-04-16 11:38 | -48.68773 | -73.81071 | 33477 ft | 394 kts | 355° |
| 2026-04-16 11:38 | -48.63309 | -73.80383 | 33491 ft | 394 kts | 355° |
| 2026-04-16 11:39 | -48.57868 | -73.79707 | 33492 ft | 394 kts | 355° |
| 2026-04-16 11:39 | -48.52408 | -73.79022 | 33415 ft | 391 kts | 355° |
| 2026-04-16 11:40 | -48.47011 | -73.78348 | 33496 ft | 389 kts | 354° |
| 2026-04-16 11:40 | -48.41604 | -73.77679 | 33502 ft | 390 kts | 354° |
| 2026-04-16 11:41 | -48.36196 | -73.77008 | 33478 ft | 388 kts | 354° |
| 2026-04-16 11:41 | -48.30848 | -73.76337 | 33525 ft | 384 kts | 354° |
| 2026-04-16 11:42 | -48.25537 | -73.75688 | 33501 ft | 385 kts | 354° |
| 2026-04-16 11:42 | -48.20186 | -73.75035 | 33523 ft | 385 kts | 354° |
| 2026-04-16 11:43 | -48.14825 | -73.74390 | 33530 ft | 387 kts | 354° |
| 2026-04-16 11:43 | -48.09413 | -73.73739 | 33509 ft | 392 kts | 354° |
| 2026-04-16 11:44 | -48.03957 | -73.73078 | 33523 ft | 395 kts | 354° |
| 2026-04-16 11:44 | -47.98468 | -73.72413 | 33512 ft | 396 kts | 354° |
| 2026-04-16 11:45 | -47.93002 | -73.71748 | 33516 ft | 396 kts | 354° |
| 2026-04-16 11:45 | -47.87514 | -73.71084 | 33511 ft | 395 kts | 354° |
| 2026-04-16 11:46 | -47.82039 | -73.70424 | 33531 ft | 394 kts | 354° |
| 2026-04-16 11:46 | -47.76583 | -73.69769 | 33528 ft | 392 kts | 354° |
| 2026-04-16 11:47 | -47.71153 | -73.69119 | 33536 ft | 391 kts | 355° |
| 2026-04-16 11:47 | -47.65747 | -73.68474 | 33531 ft | 391 kts | 354° |
| 2026-04-16 11:48 | -47.60321 | -73.67824 | 33541 ft | 389 kts | 354° |
| 2026-04-16 11:48 | -47.54921 | -73.67180 | 33559 ft | 388 kts | 354° |
| 2026-04-16 11:49 | -47.49532 | -73.66541 | 33536 ft | 388 kts | 354° |
| 2026-04-16 11:49 | -47.44148 | -73.65903 | 33550 ft | 387 kts | 354° |
| 2026-04-16 11:50 | -47.38778 | -73.65264 | 33561 ft | 388 kts | 354° |
| 2026-04-16 11:50 | -47.33383 | -73.64627 | 33557 ft | 389 kts | 355° |
| 2026-04-16 11:51 | -47.27963 | -73.63989 | 33564 ft | 392 kts | 354° |
| 2026-04-16 11:51 | -47.22510 | -73.63351 | 33569 ft | 394 kts | 355° |
| 2026-04-16 11:52 | -47.17068 | -73.62708 | 33572 ft | 394 kts | 354° |
| 2026-04-16 11:52 | -47.11601 | -73.62067 | 33593 ft | 394 kts | 355° |
| 2026-04-16 11:53 | -47.06123 | -73.61424 | 33586 ft | 395 kts | 355° |
| 2026-04-16 11:53 | -47.00646 | -73.60784 | 33608 ft | 395 kts | 355° |
| 2026-04-16 11:54 | -46.95181 | -73.60359 | 33600 ft | 391 kts | 352° |
| 2026-04-16 11:54 | -46.89734 | -73.60159 | 33602 ft | 391 kts | 352° |
| 2026-04-16 11:55 | -46.84322 | -73.59956 | 33609 ft | 391 kts | 353° |
| 2026-04-16 11:55 | -46.78884 | -73.59719 | 33614 ft | 391 kts | 352° |
| 2026-04-16 11:56 | -46.73439 | -73.59472 | 33624 ft | 391 kts | 352° |
| 2026-04-16 11:56 | -46.67990 | -73.59219 | 33627 ft | 392 kts | 353° |
| 2026-04-16 11:57 | -46.62522 | -73.58964 | 33621 ft | 392 kts | 353° |
| 2026-04-16 11:57 | -46.57094 | -73.58711 | 33623 ft | 394 kts | 353° |
| 2026-04-16 11:58 | -46.51597 | -73.58457 | 33629 ft | 395 kts | 353° |
| 2026-04-16 11:58 | -46.46101 | -73.58207 | 33593 ft | 395 kts | 353° |
| 2026-04-16 11:59 | -46.40630 | -73.57947 | 33649 ft | 393 kts | 353° |
| 2026-04-16 11:59 | -46.35122 | -73.57694 | 33654 ft | 397 kts | 353° |
| 2026-04-16 12:00 | -46.29557 | -73.57439 | 33656 ft | 401 kts | 353° |
| 2026-04-16 12:00 | -46.23963 | -73.57186 | 33655 ft | 403 kts | 354° |
| 2026-04-16 12:01 | -46.18377 | -73.56929 | 33663 ft | 405 kts | 354° |
| 2026-04-16 12:01 | -46.12741 | -73.56668 | 33672 ft | 406 kts | 354° |
| 2026-04-16 12:02 | -46.04227 | -73.56282 | 33656 ft | 408 kts | 354° |
| 2026-04-16 12:02 | -45.98557 | -73.56022 | 33676 ft | 407 kts | 354° |
| 2026-04-16 12:03 | -45.92897 | -73.55760 | 33676 ft | 406 kts | 354° |
| 2026-04-16 12:03 | -45.87262 | -73.55507 | 33689 ft | 405 kts | 354° |
| 2026-04-16 12:04 | -45.81632 | -73.55250 | 33693 ft | 403 kts | 354° |
| 2026-04-16 12:04 | -45.76054 | -73.54997 | 33700 ft | 403 kts | 354° |
| 2026-04-16 12:05 | -45.70452 | -73.54744 | 33697 ft | 402 kts | 354° |
| 2026-04-16 12:05 | -45.64858 | -73.54494 | 33699 ft | 402 kts | 354° |
| 2026-04-16 12:06 | -45.59263 | -73.54242 | 33705 ft | 402 kts | 354° |
| 2026-04-16 12:06 | -45.53668 | -73.53996 | 33715 ft | 403 kts | 355° |
| 2026-04-16 12:07 | -45.48042 | -73.53744 | 33715 ft | 405 kts | 355° |
| 2026-04-16 12:07 | -45.42405 | -73.53491 | 33718 ft | 406 kts | 355° |
| 2026-04-16 12:08 | -45.36789 | -73.53242 | 33724 ft | 407 kts | 354° |
| 2026-04-16 12:08 | -45.31116 | -73.52984 | 33720 ft | 409 kts | 354° |
| 2026-04-16 12:09 | -45.25413 | -73.52731 | 33734 ft | 410 kts | 354° |
| 2026-04-16 12:09 | -45.19697 | -73.52475 | 33727 ft | 411 kts | 354° |
| 2026-04-16 12:10 | -45.13964 | -73.52131 | 33727 ft | 414 kts | 357° |
| 2026-04-16 12:10 | -45.08241 | -73.51428 | 33736 ft | 415 kts | 358° |
| 2026-04-16 12:11 | -45.02491 | -73.50665 | 33742 ft | 415 kts | 358° |
| 2026-04-16 12:11 | -44.96739 | -73.49921 | 33749 ft | 414 kts | 358° |
| 2026-04-16 12:12 | -44.91969 | -73.49318 | 33744 ft | 414 kts | 358° |
| 2026-04-16 12:12 | -44.86225 | -73.48599 | 33761 ft | 414 kts | 358° |
| 2026-04-16 12:13 | -44.80484 | -73.47883 | 33760 ft | 414 kts | 358° |
| 2026-04-16 12:13 | -44.74748 | -73.47168 | 33767 ft | 414 kts | 358° |
| 2026-04-16 12:14 | -44.69005 | -73.46457 | 33771 ft | 414 kts | 358° |
| 2026-04-16 12:14 | -44.63282 | -73.45749 | 33778 ft | 415 kts | 358° |
| 2026-04-16 12:15 | -44.57522 | -73.45036 | 33783 ft | 415 kts | 358° |
| 2026-04-16 12:15 | -44.51756 | -73.44326 | 33789 ft | 416 kts | 358° |
| 2026-04-16 12:16 | -44.45978 | -73.43616 | 33788 ft | 417 kts | 358° |
| 2026-04-16 12:16 | -44.40223 | -73.42905 | 33793 ft | 418 kts | 358° |
| 2026-04-16 12:17 | -44.34425 | -73.42192 | 33798 ft | 418 kts | 358° |
| 2026-04-16 12:17 | -44.28603 | -73.41478 | 33801 ft | 419 kts | 359° |
| 2026-04-16 12:18 | -44.22769 | -73.40765 | 33802 ft | 420 kts | 359° |
| 2026-04-16 12:18 | -44.16966 | -73.40059 | 33798 ft | 422 kts | 359° |
| 2026-04-16 12:19 | -44.11120 | -73.39344 | 33805 ft | 422 kts | 359° |
| 2026-04-16 12:19 | -44.05263 | -73.38633 | 33817 ft | 423 kts | 359° |
| 2026-04-16 12:20 | -43.99395 | -73.37921 | 33804 ft | 424 kts | 359° |
| 2026-04-16 12:20 | -43.93511 | -73.37210 | 33817 ft | 424 kts | 359° |
| 2026-04-16 12:21 | -43.87644 | -73.36502 | 33821 ft | 426 kts | 359° |
| 2026-04-16 12:21 | -43.81726 | -73.35790 | 33814 ft | 426 kts | 359° |
| 2026-04-16 12:22 | -43.75820 | -73.35078 | 33818 ft | 425 kts | 359° |
| 2026-04-16 12:22 | -43.69920 | -73.34367 | 33823 ft | 425 kts | 359° |
| 2026-04-16 12:23 | -43.64024 | -73.33660 | 33824 ft | 425 kts | 359° |
| 2026-04-16 12:23 | -43.58124 | -73.32954 | 33832 ft | 425 kts | 359° |
| 2026-04-16 12:24 | -43.52262 | -73.32253 | 33837 ft | 425 kts | 359° |
| 2026-04-16 12:24 | -43.46358 | -73.31550 | 33837 ft | 426 kts | 359° |
| 2026-04-16 12:25 | -43.40397 | -73.30842 | 33841 ft | 427 kts | 360° |
| 2026-04-16 12:25 | -43.34503 | -73.30142 | 33846 ft | 428 kts | 360° |
| 2026-04-16 12:26 | -43.28554 | -73.29436 | 33852 ft | 430 kts | 360° |
| 2026-04-16 12:26 | -43.22584 | -73.28726 | 33855 ft | 431 kts | 360° |
| 2026-04-16 12:27 | -43.16596 | -73.28019 | 33854 ft | 432 kts | 0° |
| 2026-04-16 12:27 | -43.10581 | -73.27344 | 33864 ft | 433 kts | 360° |
| 2026-04-16 12:28 | -43.04553 | -73.26717 | 33862 ft | 435 kts | 360° |
| 2026-04-16 12:28 | -42.98507 | -73.26088 | 33864 ft | 436 kts | 0° |
| 2026-04-16 12:29 | -42.92493 | -73.25451 | 33866 ft | 437 kts | 0° |
| 2026-04-16 12:29 | -42.86416 | -73.24815 | 33870 ft | 438 kts | 0° |
| 2026-04-16 12:30 | -42.80331 | -73.24172 | 33868 ft | 439 kts | 0° |
| 2026-04-16 12:30 | -42.74232 | -73.23531 | 33871 ft | 439 kts | 0° |
| 2026-04-16 12:31 | -42.68125 | -73.22890 | 33872 ft | 440 kts | 0° |
| 2026-04-16 12:31 | -42.62010 | -73.22250 | 33881 ft | 440 kts | 0° |
| 2026-04-16 12:32 | -42.55934 | -73.21611 | 33884 ft | 440 kts | 0° |
| 2026-04-16 12:32 | -42.49835 | -73.20972 | 33888 ft | 439 kts | 0° |
| 2026-04-16 12:33 | -42.43740 | -73.20336 | 33887 ft | 439 kts | 360° |
| 2026-04-16 12:33 | -42.37606 | -73.19676 | 33891 ft | 438 kts | 0° |
| 2026-04-16 12:34 | -42.31539 | -73.18998 | 33902 ft | 437 kts | 360° |
| 2026-04-16 12:34 | -42.25477 | -73.18317 | 33899 ft | 436 kts | 0° |
| 2026-04-16 12:35 | -42.19470 | -73.17645 | 33894 ft | 435 kts | 360° |
| 2026-04-16 12:35 | -42.13443 | -73.16973 | 33894 ft | 433 kts | 360° |
| 2026-04-16 12:36 | -42.07436 | -73.16305 | 33903 ft | 432 kts | 359° |
| 2026-04-16 12:36 | -42.01441 | -73.15640 | 33902 ft | 431 kts | 359° |
| 2026-04-16 12:37 | -41.95476 | -73.14982 | 33906 ft | 429 kts | 359° |
| 2026-04-16 12:37 | -41.89563 | -73.14329 | 33906 ft | 428 kts | 359° |
| 2026-04-16 12:38 | -41.83629 | -73.13673 | 33907 ft | 427 kts | 359° |
| 2026-04-16 12:38 | -41.77718 | -73.13021 | 33905 ft | 425 kts | 359° |
| 2026-04-16 12:39 | -41.71820 | -73.12371 | 33893 ft | 424 kts | 359° |
| 2026-04-16 12:39 | -41.65987 | -73.11731 | 33890 ft | 422 kts | 359° |
| 2026-04-16 12:40 | -41.60132 | -73.11091 | 33888 ft | 421 kts | 359° |
| 2026-04-16 12:40 | -41.54285 | -73.10452 | 33884 ft | 420 kts | 359° |
| 2026-04-16 12:41 | -41.48453 | -73.09811 | 33890 ft | 420 kts | 359° |
| 2026-04-16 12:41 | -41.42619 | -73.09166 | 33880 ft | 421 kts | 0° |
| 2026-04-16 12:42 | -41.36825 | -73.08132 | 33883 ft | 423 kts | 1° |
| 2026-04-16 12:42 | -41.30986 | -73.06989 | 33878 ft | 423 kts | 2° |
| 2026-04-16 12:43 | -41.25148 | -73.05874 | 33882 ft | 423 kts | 1° |
| 2026-04-16 12:43 | -41.19364 | -73.04782 | 33887 ft | 421 kts | 1° |
| 2026-04-16 12:44 | -41.13565 | -73.03693 | 33893 ft | 420 kts | 1° |
| 2026-04-16 12:44 | -41.07786 | -73.02615 | 33911 ft | 419 kts | 1° |
| 2026-04-16 12:45 | -41.02009 | -73.01556 | 33902 ft | 419 kts | 1° |
| 2026-04-16 12:45 | -40.96247 | -73.00501 | 33913 ft | 418 kts | 1° |
| 2026-04-16 12:46 | -40.90522 | -72.99448 | 33910 ft | 417 kts | 1° |
| 2026-04-16 12:46 | -40.84772 | -72.98391 | 33912 ft | 416 kts | 1° |
| 2026-04-16 12:47 | -40.79027 | -72.97338 | 33915 ft | 416 kts | 0° |
| 2026-04-16 12:47 | -40.73294 | -72.96286 | 33911 ft | 415 kts | 1° |
| 2026-04-16 12:48 | -40.67560 | -72.95237 | 33912 ft | 415 kts | 1° |
| 2026-04-16 12:48 | -40.61835 | -72.94190 | 33911 ft | 415 kts | 1° |
| 2026-04-16 12:49 | -40.56156 | -72.93155 | 33908 ft | 414 kts | 1° |
| 2026-04-16 12:49 | -40.50399 | -72.92106 | 33912 ft | 414 kts | 1° |
| 2026-04-16 12:50 | -40.44691 | -72.91068 | 33924 ft | 414 kts | 0° |
| 2026-04-16 12:50 | -40.38986 | -72.90029 | 33926 ft | 414 kts | 1° |
| 2026-04-16 12:51 | -40.33319 | -72.89005 | 33929 ft | 413 kts | 0° |
| 2026-04-16 12:51 | -40.27618 | -72.88064 | 33935 ft | 412 kts | 0° |
| 2026-04-16 12:52 | -40.21922 | -72.87158 | 33940 ft | 412 kts | 360° |
| 2026-04-16 12:52 | -40.17191 | -72.86400 | 33938 ft | 412 kts | 0° |
| 2026-04-16 12:53 | -40.11492 | -72.85480 | 33946 ft | 412 kts | 360° |
| 2026-04-16 12:53 | -40.04873 | -72.84406 | 33947 ft | 412 kts | 0° |
| 2026-04-16 12:54 | -40.00101 | -72.83635 | 33955 ft | 412 kts | 360° |
| 2026-04-16 12:54 | -39.94406 | -72.82714 | 33953 ft | 412 kts | 0° |
| 2026-04-16 12:55 | -39.88715 | -72.81796 | 33940 ft | 412 kts | 360° |
| 2026-04-16 12:55 | -39.83065 | -72.80885 | 33939 ft | 412 kts | 0° |
| 2026-04-16 12:56 | -39.77368 | -72.79966 | 33938 ft | 411 kts | 360° |
| 2026-04-16 12:56 | -39.71679 | -72.79054 | 33935 ft | 411 kts | 0° |
| 2026-04-16 12:57 | -39.65993 | -72.78055 | 33937 ft | 412 kts | 1° |
| 2026-04-16 12:57 | -39.60311 | -72.76997 | 33945 ft | 413 kts | 1° |
| 2026-04-16 12:58 | -39.54617 | -72.75944 | 33947 ft | 414 kts | 1° |
| 2026-04-16 12:58 | -39.48917 | -72.74899 | 33946 ft | 414 kts | 1° |
| 2026-04-16 12:59 | -39.43235 | -72.73861 | 33968 ft | 415 kts | 0° |
| 2026-04-16 13:00 | -39.34651 | -72.72310 | 33972 ft | 415 kts | 0° |
| 2026-04-16 13:00 | -39.28912 | -72.71282 | 33968 ft | 416 kts | 1° |
| 2026-04-16 13:01 | -39.23169 | -72.70249 | 33966 ft | 417 kts | 1° |
| 2026-04-16 13:01 | -39.17415 | -72.69216 | 33958 ft | 418 kts | 0° |
| 2026-04-16 13:02 | -39.11645 | -72.68180 | 33948 ft | 418 kts | 0° |
| 2026-04-16 13:02 | -39.05912 | -72.67151 | 33943 ft | 419 kts | 0° |
| 2026-04-16 13:03 | -39.00143 | -72.66115 | 33936 ft | 419 kts | 0° |
| 2026-04-16 13:03 | -38.94357 | -72.65078 | 33937 ft | 419 kts | 0° |
| 2026-04-16 13:04 | -38.88581 | -72.63902 | 33934 ft | 423 kts | 4° |
| 2026-04-16 13:04 | -38.82819 | -72.62250 | 33939 ft | 425 kts | 5° |
| 2026-04-16 13:05 | -38.77051 | -72.60550 | 33946 ft | 425 kts | 5° |
| 2026-04-16 13:05 | -38.71282 | -72.58882 | 33958 ft | 425 kts | 5° |
| 2026-04-16 13:06 | -38.65522 | -72.57236 | 33960 ft | 426 kts | 5° |
| 2026-04-16 13:06 | -38.59723 | -72.55580 | 33974 ft | 426 kts | 5° |
| 2026-04-16 13:07 | -38.53925 | -72.53924 | 33977 ft | 426 kts | 5° |
| 2026-04-16 13:07 | -38.48129 | -72.52278 | 33975 ft | 426 kts | 5° |
| 2026-04-16 13:08 | -38.42328 | -72.50647 | 33978 ft | 427 kts | 5° |
| 2026-04-16 13:08 | -38.36524 | -72.49014 | 33982 ft | 427 kts | 5° |
| 2026-04-16 13:09 | -38.30757 | -72.47387 | 33985 ft | 427 kts | 5° |
| 2026-04-16 13:09 | -38.24938 | -72.45752 | 33986 ft | 428 kts | 5° |
| 2026-04-16 13:10 | -38.19116 | -72.44121 | 33986 ft | 429 kts | 5° |
| 2026-04-16 13:10 | -38.13237 | -72.42476 | 33986 ft | 430 kts | 5° |
| 2026-04-16 13:11 | -38.07422 | -72.40848 | 33987 ft | 431 kts | 5° |
| 2026-04-16 13:11 | -38.01561 | -72.39207 | 33997 ft | 432 kts | 5° |
| 2026-04-16 13:12 | -37.95668 | -72.37561 | 33995 ft | 433 kts | 5° |
| 2026-04-16 13:12 | -37.89765 | -72.35913 | 33994 ft | 435 kts | 5° |
| 2026-04-16 13:13 | -37.83836 | -72.34258 | 33994 ft | 436 kts | 5° |
| 2026-04-16 13:13 | -37.77943 | -72.32617 | 33997 ft | 436 kts | 5° |
| 2026-04-16 13:14 | -37.71993 | -72.30961 | 34003 ft | 437 kts | 5° |
| 2026-04-16 13:14 | -37.66047 | -72.29310 | 33999 ft | 438 kts | 5° |
| 2026-04-16 13:15 | -37.60095 | -72.27591 | 34003 ft | 439 kts | 6° |
| 2026-04-16 13:15 | -37.54147 | -72.25767 | 34004 ft | 439 kts | 7° |
| 2026-04-16 13:16 | -37.48240 | -72.23947 | 34004 ft | 439 kts | 7° |
| 2026-04-16 13:16 | -37.42283 | -72.22125 | 34003 ft | 439 kts | 7° |
| 2026-04-16 13:17 | -37.36334 | -72.20318 | 34009 ft | 440 kts | 7° |
| 2026-04-16 13:17 | -37.30382 | -72.18515 | 34009 ft | 440 kts | 7° |
| 2026-04-16 13:18 | -37.24424 | -72.16711 | 34011 ft | 441 kts | 7° |
| 2026-04-16 13:18 | -37.18454 | -72.14906 | 34014 ft | 442 kts | 7° |
| 2026-04-16 13:19 | -37.12511 | -72.13113 | 34013 ft | 442 kts | 7° |
| 2026-04-16 13:19 | -37.06511 | -72.11306 | 34020 ft | 443 kts | 7° |
| 2026-04-16 13:20 | -37.00505 | -72.09500 | 34017 ft | 444 kts | 7° |
| 2026-04-16 13:20 | -36.94479 | -72.07690 | 34015 ft | 445 kts | 7° |
| 2026-04-16 13:21 | -36.88450 | -72.05883 | 34019 ft | 446 kts | 7° |
| 2026-04-16 13:21 | -36.82393 | -72.04068 | 34019 ft | 447 kts | 7° |
| 2026-04-16 13:22 | -36.76323 | -72.02256 | 34016 ft | 448 kts | 7° |
| 2026-04-16 13:22 | -36.70248 | -72.00442 | 34017 ft | 449 kts | 7° |
| 2026-04-16 13:23 | -36.64163 | -71.98629 | 34016 ft | 449 kts | 7° |
| 2026-04-16 13:23 | -36.58107 | -71.96828 | 34023 ft | 450 kts | 7° |
| 2026-04-16 13:24 | -36.52006 | -71.95018 | 34023 ft | 450 kts | 7° |
| 2026-04-16 13:24 | -36.45907 | -71.93209 | 34019 ft | 450 kts | 7° |
| 2026-04-16 13:25 | -36.39808 | -71.91404 | 34023 ft | 450 kts | 7° |
| 2026-04-16 13:25 | -36.33703 | -71.89600 | 34026 ft | 451 kts | 7° |
| 2026-04-16 13:26 | -36.27637 | -71.87811 | 34026 ft | 451 kts | 7° |
| 2026-04-16 13:26 | -36.21530 | -71.86014 | 34028 ft | 451 kts | 7° |
| 2026-04-16 13:27 | -36.15409 | -71.84215 | 34025 ft | 452 kts | 7° |
| 2026-04-16 13:27 | -36.09273 | -71.82412 | 34020 ft | 453 kts | 7° |
| 2026-04-16 13:28 | -36.03139 | -71.80613 | 34024 ft | 453 kts | 7° |
| 2026-04-16 13:28 | -35.96997 | -71.78816 | 34026 ft | 454 kts | 7° |
| 2026-04-16 13:29 | -35.90842 | -71.77018 | 34031 ft | 455 kts | 7° |
| 2026-04-16 13:29 | -35.84665 | -71.75215 | 34027 ft | 456 kts | 7° |
| 2026-04-16 13:30 | -35.78484 | -71.73415 | 34029 ft | 456 kts | 7° |
| 2026-04-16 13:30 | -35.72293 | -71.71615 | 34031 ft | 457 kts | 7° |
| 2026-04-16 13:31 | -35.66127 | -71.69823 | 34026 ft | 458 kts | 7° |
| 2026-04-16 13:31 | -35.59909 | -71.68018 | 33881 ft | 462 kts | 7° |
| 2026-04-16 13:31 | -35.56782 | -71.67111 | 33589 ft | 460 kts | 7° |
| 2026-04-16 13:32 | -35.53674 | -71.66209 | 33326 ft | 458 kts | 7° |
| 2026-04-16 13:32 | -35.50563 | -71.65307 | 33067 ft | 460 kts | 7° |
| 2026-04-16 13:32 | -35.47443 | -71.64409 | 32811 ft | 461 kts | 7° |
| 2026-04-16 13:32 | -35.44309 | -71.63504 | 32556 ft | 463 kts | 7° |
| 2026-04-16 13:33 | -35.41175 | -71.62602 | 32299 ft | 464 kts | 7° |
| 2026-04-16 13:33 | -35.38027 | -71.61697 | 32064 ft | 464 kts | 7° |
| 2026-04-16 13:33 | -35.34885 | -71.60792 | 31806 ft | 463 kts | 7° |
| 2026-04-16 13:33 | -35.31753 | -71.59888 | 31551 ft | 462 kts | 7° |
| 2026-04-16 13:34 | -35.28635 | -71.58987 | 31315 ft | 459 kts | 7° |
| 2026-04-16 13:34 | -35.26578 | -71.58393 | 31147 ft | 458 kts | 7° |
| 2026-04-16 13:34 | -35.22454 | -71.57204 | 30819 ft | 454 kts | 7° |
| 2026-04-16 13:34 | -35.19380 | -71.56320 | 30584 ft | 451 kts | 7° |
| 2026-04-16 13:35 | -35.17357 | -71.55739 | 30414 ft | 449 kts | 7° |
| 2026-04-16 13:35 | -35.14316 | -71.54866 | 30180 ft | 446 kts | 7° |
| 2026-04-16 13:35 | -35.11301 | -71.54000 | 29917 ft | 444 kts | 7° |
| 2026-04-16 13:35 | -35.08294 | -71.53138 | 29645 ft | 443 kts | 7° |
| 2026-04-16 13:36 | -35.05299 | -71.52279 | 29357 ft | 440 kts | 7° |
| 2026-04-16 13:36 | -35.02351 | -71.51434 | 29092 ft | 439 kts | 7° |
| 2026-04-16 13:36 | -34.99375 | -71.50583 | 28829 ft | 438 kts | 7° |
| 2026-04-16 13:36 | -34.96412 | -71.49736 | 28555 ft | 437 kts | 7° |
| 2026-04-16 13:37 | -34.93453 | -71.48890 | 28305 ft | 436 kts | 7° |
| 2026-04-16 13:37 | -34.90506 | -71.48049 | 28044 ft | 435 kts | 7° |
| 2026-04-16 13:37 | -34.87550 | -71.47205 | 27785 ft | 434 kts | 7° |
| 2026-04-16 13:37 | -34.84616 | -71.46367 | 27526 ft | 433 kts | 7° |
| 2026-04-16 13:38 | -34.81682 | -71.45530 | 27279 ft | 432 kts | 7° |
| 2026-04-16 13:38 | -34.78757 | -71.44695 | 27027 ft | 431 kts | 7° |
| 2026-04-16 13:38 | -34.75829 | -71.43860 | 26775 ft | 430 kts | 7° |
| 2026-04-16 13:38 | -34.72930 | -71.43033 | 26536 ft | 428 kts | 7° |
| 2026-04-16 13:39 | -34.70034 | -71.42208 | 26288 ft | 426 kts | 7° |
| 2026-04-16 13:39 | -34.67153 | -71.41391 | 26047 ft | 424 kts | 7° |
| 2026-04-16 13:39 | -34.64297 | -71.40527 | 25796 ft | 425 kts | 12° |
| 2026-04-16 13:39 | -34.61506 | -71.39307 | 25558 ft | 426 kts | 17° |
| 2026-04-16 13:40 | -34.58771 | -71.37939 | 25330 ft | 425 kts | 18° |
| 2026-04-16 13:40 | -34.56053 | -71.36528 | 25101 ft | 424 kts | 18° |
| 2026-04-16 13:40 | -34.53345 | -71.35123 | 24865 ft | 423 kts | 18° |
| 2026-04-16 13:40 | -34.50639 | -71.33741 | 24639 ft | 421 kts | 18° |
| 2026-04-16 13:41 | -34.47938 | -71.32384 | 24410 ft | 419 kts | 18° |
| 2026-04-16 13:41 | -34.45235 | -71.31042 | 24185 ft | 418 kts | 17° |
| 2026-04-16 13:41 | -34.42570 | -71.29729 | 23963 ft | 417 kts | 17° |
| 2026-04-16 13:41 | -34.39880 | -71.28408 | 23742 ft | 416 kts | 17° |
| 2026-04-16 13:42 | -34.37198 | -71.27093 | 23477 ft | 414 kts | 17° |
| 2026-04-16 13:42 | -34.34532 | -71.25787 | 23227 ft | 412 kts | 17° |
| 2026-04-16 13:42 | -34.31876 | -71.24486 | 22960 ft | 411 kts | 17° |
| 2026-04-16 13:42 | -34.29234 | -71.23191 | 22709 ft | 409 kts | 17° |
| 2026-04-16 13:43 | -34.26594 | -71.21900 | 22435 ft | 408 kts | 17° |
| 2026-04-16 13:43 | -34.23974 | -71.20619 | 22184 ft | 405 kts | 17° |
| 2026-04-16 13:43 | -34.21397 | -71.19360 | 21927 ft | 403 kts | 17° |
| 2026-04-16 13:43 | -34.18809 | -71.18095 | 21670 ft | 400 kts | 17° |
| 2026-04-16 13:44 | -34.16233 | -71.16837 | 21419 ft | 398 kts | 17° |
| 2026-04-16 13:44 | -34.13671 | -71.15587 | 21169 ft | 396 kts | 18° |
| 2026-04-16 13:44 | -34.11127 | -71.14347 | 20919 ft | 393 kts | 17° |
| 2026-04-16 13:44 | -34.08589 | -71.13111 | 20675 ft | 391 kts | 17° |
| 2026-04-16 13:45 | -34.06075 | -71.11884 | 20431 ft | 389 kts | 17° |
| 2026-04-16 13:45 | -34.03572 | -71.10665 | 20204 ft | 387 kts | 17° |
| 2026-04-16 13:45 | -34.01069 | -71.09447 | 19948 ft | 385 kts | 18° |
| 2026-04-16 13:45 | -33.98620 | -71.08259 | 19717 ft | 383 kts | 17° |
| 2026-04-16 13:46 | -33.96083 | -71.07419 | 19451 ft | 373 kts | 359° |
| 2026-04-16 13:46 | -33.93520 | -71.07396 | 19251 ft | 367 kts | 354° |
| 2026-04-16 13:46 | -33.90975 | -71.07478 | 19018 ft | 365 kts | 354° |
| 2026-04-16 13:46 | -33.88442 | -71.07574 | 18784 ft | 364 kts | 354° |
| 2026-04-16 13:47 | -33.85908 | -71.07663 | 18564 ft | 364 kts | 354° |
| 2026-04-16 13:47 | -33.83382 | -71.07742 | 18333 ft | 363 kts | 354° |
| 2026-04-16 13:47 | -33.80856 | -71.07813 | 18077 ft | 362 kts | 355° |
| 2026-04-16 13:47 | -33.78340 | -71.07877 | 17811 ft | 361 kts | 355° |
| 2026-04-16 13:48 | -33.75852 | -71.07937 | 17550 ft | 360 kts | 355° |
| 2026-04-16 13:48 | -33.73356 | -71.07994 | 17304 ft | 358 kts | 355° |
| 2026-04-16 13:48 | -33.70870 | -71.08051 | 17042 ft | 356 kts | 355° |
| 2026-04-16 13:48 | -33.68396 | -71.08106 | 16789 ft | 354 kts | 355° |
| 2026-04-16 13:49 | -33.65943 | -71.08160 | 16533 ft | 352 kts | 356° |
| 2026-04-16 13:49 | -33.63497 | -71.08213 | 16285 ft | 349 kts | 356° |
| 2026-04-16 13:49 | -33.61077 | -71.08267 | 16044 ft | 347 kts | 356° |
| 2026-04-16 13:49 | -33.58676 | -71.08320 | 15786 ft | 344 kts | 356° |
| 2026-04-16 13:50 | -33.56287 | -71.08375 | 15564 ft | 342 kts | 356° |
| 2026-04-16 13:50 | -33.53912 | -71.08427 | 15307 ft | 340 kts | 356° |
| 2026-04-16 13:50 | -33.51549 | -71.08478 | 15079 ft | 339 kts | 356° |
| 2026-04-16 13:50 | -33.49196 | -71.08531 | 14838 ft | 337 kts | 356° |
| 2026-04-16 13:51 | -33.46857 | -71.08580 | 14587 ft | 335 kts | 357° |
| 2026-04-16 13:51 | -33.44529 | -71.08629 | 14356 ft | 333 kts | 357° |
| 2026-04-16 13:51 | -33.42217 | -71.08682 | 14134 ft | 331 kts | 357° |
| 2026-04-16 13:51 | -33.39943 | -71.08731 | 13888 ft | 329 kts | 357° |
| 2026-04-16 13:52 | -33.37655 | -71.08786 | 13652 ft | 328 kts | 357° |
| 2026-04-16 13:52 | -33.35377 | -71.08834 | 13389 ft | 326 kts | 357° |
| 2026-04-16 13:52 | -33.33117 | -71.08884 | 13152 ft | 325 kts | 358° |
| 2026-04-16 13:52 | -33.30853 | -71.08932 | 12879 ft | 324 kts | 358° |
| 2026-04-16 13:53 | -33.28599 | -71.08978 | 12614 ft | 324 kts | 357° |
| 2026-04-16 13:53 | -33.26352 | -71.09028 | 12353 ft | 323 kts | 358° |
| 2026-04-16 13:53 | -33.24108 | -71.09078 | 12097 ft | 320 kts | 358° |
| 2026-04-16 13:53 | -33.21884 | -71.09129 | 11855 ft | 319 kts | 357° |
| 2026-04-16 13:54 | -33.19663 | -71.09113 | 11610 ft | 322 kts | 3° |
| 2026-04-16 13:54 | -33.17444 | -71.08745 | 11387 ft | 321 kts | 8° |
| 2026-04-16 13:54 | -33.15243 | -71.08241 | 11126 ft | 322 kts | 9° |
| 2026-04-16 13:54 | -33.13055 | -71.07714 | 10882 ft | 319 kts | 9° |
| 2026-04-16 13:55 | -33.10927 | -71.07212 | 10603 ft | 313 kts | 9° |
| 2026-04-16 13:55 | -33.08782 | -71.06723 | 10417 ft | 308 kts | 8° |
| 2026-04-16 13:55 | -33.06699 | -71.06257 | 10194 ft | 308 kts | 8° |
| 2026-04-16 13:55 | -33.04596 | -71.05795 | 9967 ft | 307 kts | 9° |
| 2026-04-16 13:56 | -33.02496 | -71.05336 | 9691 ft | 305 kts | 8° |
| 2026-04-16 13:56 | -33.00437 | -71.04890 | 9515 ft | 292 kts | 8° |
| 2026-04-16 13:56 | -32.98482 | -71.04468 | 9522 ft | 273 kts | 8° |
| 2026-04-16 13:56 | -32.96662 | -71.04075 | 9518 ft | 260 kts | 8° |
| 2026-04-16 13:57 | -32.94874 | -71.03691 | 9536 ft | 267 kts | 8° |
| 2026-04-16 13:57 | -32.93043 | -71.03301 | 9480 ft | 272 kts | 8° |
| 2026-04-16 13:57 | -32.91201 | -71.02852 | 9487 ft | 269 kts | 17° |
| 2026-04-16 13:58 | -32.88586 | -70.99809 | 9439 ft | 270 kts | 64° |
| 2026-04-16 13:58 | -32.88252 | -70.97589 | 9215 ft | 276 kts | 87° |
| 2026-04-16 13:58 | -32.88627 | -70.95345 | 9011 ft | 278 kts | 104° |
| 2026-04-16 13:58 | -32.89230 | -70.93169 | 8826 ft | 275 kts | 105° |
| 2026-04-16 13:59 | -32.89834 | -70.91014 | 8617 ft | 274 kts | 105° |
| 2026-04-16 13:59 | -32.90430 | -70.88862 | 8440 ft | 273 kts | 104° |
| 2026-04-16 13:59 | -32.91008 | -70.86739 | 8233 ft | 273 kts | 105° |
| 2026-04-16 13:59 | -32.91931 | -70.84732 | 8000 ft | 278 kts | 133° |
| 2026-04-16 14:00 | -32.93524 | -70.83517 | 7799 ft | 278 kts | 161° |
| 2026-04-16 14:00 | -32.95407 | -70.83096 | 7633 ft | 274 kts | 173° |
| 2026-04-16 14:00 | -32.97293 | -70.82830 | 7417 ft | 272 kts | 173° |
| 2026-04-16 14:00 | -32.99193 | -70.82554 | 7205 ft | 270 kts | 173° |
| 2026-04-16 14:01 | -33.01059 | -70.82305 | 7002 ft | 269 kts | 176° |
| 2026-04-16 14:01 | -33.02928 | -70.82194 | 6804 ft | 268 kts | 178° |
| 2026-04-16 14:01 | -33.04766 | -70.82116 | 6605 ft | 268 kts | 178° |
| 2026-04-16 14:01 | -33.06627 | -70.82036 | 6388 ft | 267 kts | 177° |
| 2026-04-16 14:02 | -33.08483 | -70.81925 | 6183 ft | 265 kts | 176° |
| 2026-04-16 14:02 | -33.10301 | -70.81815 | 6082 ft | 254 kts | 177° |
| 2026-04-16 14:02 | -33.12008 | -70.81719 | 5987 ft | 236 kts | 177° |
| 2026-04-16 14:02 | -33.13595 | -70.81633 | 5854 ft | 221 kts | 178° |
| 2026-04-16 14:03 | -33.15069 | -70.81559 | 5772 ft | 205 kts | 177° |
| 2026-04-16 14:03 | -33.16473 | -70.81485 | 5532 ft | 199 kts | 178° |
| 2026-04-16 14:03 | -33.17857 | -70.81410 | 5274 ft | 200 kts | 177° |
| 2026-04-16 14:03 | -33.19247 | -70.81336 | 5012 ft | 201 kts | 178° |
| 2026-04-16 14:04 | -33.20627 | -70.81265 | 4758 ft | 200 kts | 178° |
| 2026-04-16 14:04 | -33.22013 | -70.81190 | 4464 ft | 194 kts | 177° |
| 2026-04-16 14:04 | -33.23315 | -70.81117 | 4255 ft | 183 kts | 177° |
| 2026-04-16 14:04 | -33.24530 | -70.81051 | 4003 ft | 172 kts | 177° |
| 2026-04-16 14:05 | -33.25692 | -70.80989 | 3811 ft | 165 kts | 177° |
| 2026-04-16 14:05 | -33.26823 | -70.80929 | 3626 ft | 159 kts | 177° |
| 2026-04-16 14:05 | -33.27923 | -70.80870 | 3391 ft | 155 kts | 177° |
| 2026-04-16 14:05 | -33.28995 | -70.80812 | 3178 ft | 153 kts | 177° |
| 2026-04-16 14:06 | -33.30057 | -70.80755 | 2969 ft | 153 kts | 177° |
| 2026-04-16 14:06 | -33.31062 | -70.80701 | 2781 ft | 152 kts | 176° |
| 2026-04-16 14:06 | -33.32121 | -70.80643 | 2575 ft | 152 kts | 176° |
| 2026-04-16 14:06 | -33.33170 | -70.80587 | 2365 ft | 150 kts | 176° |
| 2026-04-16 14:07 | -33.34205 | -70.80531 | 2161 ft | 148 kts | 176° |
| 2026-04-16 14:07 | -33.35232 | -70.80471 | 1976 ft | 146 kts | 175° |
| 2026-04-16 14:07 | -33.36249 | -70.80403 | 1779 ft | 147 kts | 176° |
| 2026-04-16 14:07 | -33.37262 | -70.80367 | 1624 ft | 144 kts | 176° |
| 2026-04-16 14:08 | -33.38245 | -70.80316 | 1573 ft | 139 kts | 176° |
| 2026-04-16 14:08 | -33.39055 | -70.80272 | 1573 ft | 86 kts | 177° |
| 2026-04-16 14:08 | -33.39373 | -70.80169 | 1569 ft | 29 kts | 147° |
| 2026-04-16 14:08 | -33.39448 | -70.80112 | 1566 ft | 2 kts | 146° |
| 2026-04-16 14:09 | -33.39461 | -70.80101 | 1566 ft | 3 kts | 145° |
| 2026-04-16 14:09 | -33.39482 | -70.80077 | 1565 ft | 6 kts | 135° |
| 2026-04-16 14:09 | -33.39501 | -70.80053 | 1565 ft | 5 kts | 131° |
| 2026-04-16 14:09 | -33.39524 | -70.80007 | 1565 ft | 7 kts | 110° |
| 2026-04-16 14:10 | -33.39529 | -70.79937 | 1564 ft | 10 kts | 87° |
| 2026-04-16 14:10 | -33.39525 | -70.79847 | 1564 ft | 12 kts | 87° |
| 2026-04-16 14:10 | -33.39466 | -70.79789 | 1564 ft | 13 kts | 24° |
| 2026-04-16 14:10 | -33.39428 | -70.79697 | 1564 ft | 14 kts | 82° |
| 2026-04-16 14:11 | -33.39423 | -70.79626 | 1564 ft | 0 kts | 89° |
| 2026-04-16 14:11 | -33.39423 | -70.79613 | 1564 ft | 3 kts | 88° |
| 2026-04-16 14:11 | -33.39421 | -70.79575 | 1564 ft | 6 kts | 86° |
| 2026-04-16 14:11 | -33.39417 | -70.79504 | 1563 ft | 11 kts | 87° |
| 2026-04-16 14:12 | -33.39414 | -70.79400 | 1563 ft | 14 kts | 88° |
| 2026-04-16 14:12 | -33.39408 | -70.79267 | 1563 ft | 18 kts | 86° |
| 2026-04-16 14:12 | -33.39402 | -70.79125 | 1563 ft | 16 kts | 88° |
| 2026-04-16 14:12 | -33.39397 | -70.79012 | 1563 ft | 13 kts | 86° |
| 2026-04-16 14:13 | -33.39411 | -70.78913 | 1563 ft | 12 kts | 141° |
| 2026-04-16 14:13 | -33.39494 | -70.78892 | 1564 ft | 12 kts | 176° |
| 2026-04-16 14:13 | -33.39578 | -70.78887 | 1564 ft | 12 kts | 177° |
| 2026-04-16 14:13 | -33.39659 | -70.78883 | 1563 ft | 12 kts | 178° |
| 2026-04-16 14:14 | -33.39738 | -70.78880 | 1563 ft | 11 kts | 180° |
| 2026-04-16 14:14 | -33.39790 | -70.78934 | 1563 ft | 9 kts | 260° |
| 2026-04-16 14:14 | -33.39770 | -70.78966 | 1563 ft | 4 kts | 22° |
| 2026-04-16 14:14 | -33.39766 | -70.78963 | 1563 ft | 2 kts | 30° |
| 2026-04-16 14:15 | -33.39738 | -70.78953 | 1563 ft | 1 kts | 5° |
| 2026-04-16 14:15 | -33.39721 | -70.78953 | 1563 ft | 0 kts | 359° |
| 2026-04-16 14:15 | -33.39716 | -70.78953 | 1563 ft | 1 kts | 358° |
| 2026-04-16 14:15 | -33.39710 | -70.78954 | 1563 ft | 1 kts | 357° |
| 2026-04-16 14:16 | -33.39706 | -70.78954 | 1563 ft | 0 kts | 357° |